createdAt,value
2017-02-03T00:00:29.969Z,0
2017-02-03T00:01:43.637Z,0
2017-02-03T00:02:57.365Z,0
2017-02-03T00:04:11.079Z,0
2017-02-03T00:05:24.802Z,0
2017-02-03T00:06:38.468Z,0
2017-02-03T00:07:52.181Z,0
2017-02-03T00:09:05.856Z,0
2017-02-03T00:10:19.562Z,0
2017-02-03T00:11:32.672Z,0
2017-02-03T00:12:46.322Z,0
2017-02-03T00:13:59.996Z,0
2017-02-03T00:15:13.102Z,0
2017-02-03T00:16:26.201Z,0
2017-02-03T00:17:39.856Z,0
2017-02-03T00:18:53.753Z,0
2017-02-03T00:20:07.592Z,0
2017-02-03T00:21:21.323Z,0
2017-02-03T00:22:34.401Z,0
2017-02-03T00:23:48.059Z,0
2017-02-03T00:25:01.748Z,0
2017-02-03T00:26:14.816Z,0
2017-02-03T00:27:28.492Z,0
2017-02-03T00:28:42.206Z,0
2017-02-03T00:29:55.913Z,0
2017-02-03T00:31:09.628Z,0
2017-02-03T00:32:22.709Z,0
2017-02-03T00:33:36.439Z,0
2017-02-03T00:34:50.126Z,0
2017-02-03T00:36:03.806Z,0
2017-02-03T00:37:16.865Z,0
2017-02-03T00:38:30.568Z,0
2017-02-03T00:39:44.267Z,0
2017-02-03T00:40:57.364Z,0
2017-02-03T00:42:11.057Z,0
2017-02-03T00:43:24.735Z,0
2017-02-03T00:44:38.414Z,0
2017-02-03T00:45:50.887Z,0
2017-02-03T00:47:04.591Z,0
2017-02-03T00:48:18.301Z,0
2017-02-03T00:49:32.013Z,0
2017-02-03T00:50:45.708Z,0
2017-02-03T00:51:59.367Z,0
2017-02-03T00:53:13.062Z,0
2017-02-03T00:54:26.697Z,0
2017-02-03T00:55:40.372Z,0
2017-02-03T00:56:53.458Z,0
2017-02-03T00:58:07.152Z,0
2017-02-03T00:59:20.810Z,0
2017-02-03T01:00:34.543Z,0
2017-02-03T01:01:48.263Z,0
2017-02-03T01:03:01.930Z,0
2017-02-03T01:04:15.631Z,0
2017-02-03T01:05:29.316Z,0
2017-02-03T01:06:43.042Z,0
2017-02-03T01:07:56.714Z,0
2017-02-03T01:09:10.398Z,0
2017-02-03T01:10:24.065Z,0
2017-02-03T01:11:37.144Z,0
2017-02-03T01:12:50.856Z,0
2017-02-03T01:14:04.577Z,0
2017-02-03T01:15:17.658Z,0
2017-02-03T01:16:31.315Z,0
2017-02-03T01:17:44.991Z,0
2017-02-03T01:18:58.103Z,0
2017-02-03T01:20:11.193Z,0
2017-02-03T01:21:24.848Z,0
2017-02-03T01:22:38.524Z,0
2017-02-03T01:23:52.242Z,0
2017-02-03T01:25:05.894Z,0
2017-02-03T01:26:19.606Z,0
2017-02-03T01:27:33.280Z,0
2017-02-03T01:28:46.935Z,0
2017-02-03T01:30:00.657Z,0
2017-02-03T01:31:14.371Z,0
2017-02-03T01:32:28.094Z,0
2017-02-03T01:33:41.810Z,0
2017-02-03T01:34:55.473Z,0
2017-02-03T01:36:09.147Z,0
2017-02-03T01:37:22.830Z,0
2017-02-03T01:38:35.871Z,0
2017-02-03T01:39:49.565Z,0
2017-02-03T01:41:03.324Z,0
2017-02-03T01:42:17.035Z,0
2017-02-03T01:43:30.690Z,0
2017-02-03T01:44:44.414Z,0
2017-02-03T01:45:58.127Z,0
2017-02-03T01:47:11.811Z,0
2017-02-03T01:48:25.529Z,0
2017-02-03T01:49:39.230Z,0
2017-02-03T01:50:52.963Z,0
2017-02-03T01:52:06.636Z,0
2017-02-03T01:53:19.723Z,0
2017-02-03T01:54:33.410Z,0
2017-02-03T01:55:47.143Z,0
2017-02-03T01:57:00.813Z,0
2017-02-03T01:58:14.510Z,0
2017-02-03T01:59:28.238Z,0
2017-02-03T02:00:41.937Z,0
2017-02-03T02:01:55.658Z,0
2017-02-03T02:03:09.360Z,0
2017-02-03T02:04:23.063Z,0
2017-02-03T02:05:36.750Z,0
2017-02-03T02:06:50.486Z,0
2017-02-03T02:08:04.170Z,0
2017-02-03T02:09:18.351Z,0
2017-02-03T02:10:31.992Z,0
2017-02-03T02:11:45.667Z,0
2017-02-03T02:12:58.749Z,0
2017-02-03T02:14:12.409Z,0
2017-02-03T02:15:26.077Z,0
2017-02-03T02:16:39.177Z,0
2017-02-03T02:17:52.865Z,0
2017-02-03T02:19:05.945Z,0
2017-02-03T02:20:19.636Z,0
2017-02-03T02:21:33.318Z,0
2017-02-03T02:22:46.396Z,0
2017-02-03T02:24:00.059Z,0
2017-02-03T02:25:13.701Z,0
2017-02-03T02:26:27.397Z,0
2017-02-03T02:27:41.092Z,0
2017-02-03T02:28:54.776Z,0
2017-02-03T02:30:07.895Z,0
2017-02-03T02:31:21.559Z,0
2017-02-03T02:32:35.237Z,0
2017-02-03T02:33:48.971Z,0
2017-02-03T02:35:02.665Z,0
2017-02-03T02:36:16.308Z,0
2017-02-03T02:37:29.963Z,0
2017-02-03T02:38:43.635Z,0
2017-02-03T02:39:57.317Z,0
2017-02-03T02:41:10.963Z,0
2017-02-03T02:42:24.637Z,0
2017-02-03T02:43:37.726Z,0
2017-02-03T02:44:51.383Z,0
2017-02-03T02:46:05.090Z,0
2017-02-03T02:47:18.338Z,0
2017-02-03T02:48:32.043Z,0
2017-02-03T02:49:45.693Z,0
2017-02-03T02:50:59.399Z,0
2017-02-03T02:52:13.113Z,0
2017-02-03T02:53:26.820Z,0
2017-02-03T02:54:40.485Z,0
2017-02-03T02:55:54.168Z,0
2017-02-03T02:57:07.887Z,0
2017-02-03T02:58:21.580Z,0
2017-02-03T02:59:35.274Z,0
2017-02-03T03:00:48.941Z,0
2017-02-03T03:02:02.609Z,0
2017-02-03T03:03:16.273Z,0
2017-02-03T03:04:29.956Z,0
2017-02-03T03:05:43.045Z,0
2017-02-03T03:06:56.711Z,0
2017-02-03T03:08:10.411Z,0
2017-02-03T03:09:24.082Z,0
2017-02-03T03:10:37.750Z,0
2017-02-03T03:11:51.436Z,0
2017-02-03T03:13:05.125Z,0
2017-02-03T03:14:18.802Z,0
2017-02-03T03:15:32.470Z,0
2017-02-03T03:16:46.154Z,0
2017-02-03T03:17:59.224Z,0
2017-02-03T03:19:12.904Z,0
2017-02-03T03:20:26.574Z,0
2017-02-03T03:21:40.267Z,0
2017-02-03T03:22:53.978Z,0
2017-02-03T03:24:07.706Z,0
2017-02-03T03:25:21.420Z,0
2017-02-03T03:26:35.116Z,0
2017-02-03T03:27:48.832Z,0
2017-02-03T03:29:02.546Z,0
2017-02-03T03:30:16.203Z,0
2017-02-03T03:31:28.684Z,0
2017-02-03T03:32:42.366Z,0
2017-02-03T03:33:56.035Z,0
2017-02-03T03:35:09.741Z,0
2017-02-03T03:36:23.423Z,0
2017-02-03T03:37:36.504Z,0
2017-02-03T03:38:50.184Z,0
2017-02-03T03:40:03.268Z,0
2017-02-03T03:41:17.001Z,0
2017-02-03T03:42:30.687Z,0
2017-02-03T03:43:43.789Z,0
2017-02-03T03:44:57.445Z,0
2017-02-03T03:46:11.122Z,0
2017-02-03T03:47:24.788Z,0
2017-02-03T03:48:38.463Z,0
2017-02-03T03:49:52.129Z,0
2017-02-03T03:51:05.812Z,0
2017-02-03T03:52:19.483Z,0
2017-02-03T03:53:33.166Z,0
2017-02-03T03:54:46.876Z,0
2017-02-03T03:56:00.602Z,0
2017-02-03T03:57:13.704Z,0
2017-02-03T03:58:27.404Z,0
2017-02-03T03:59:41.075Z,0
2017-02-03T04:00:54.726Z,0
2017-02-03T04:02:08.387Z,0
2017-02-03T04:03:21.468Z,0
2017-02-03T04:04:35.142Z,0
2017-02-03T04:05:48.846Z,0
2017-02-03T04:07:02.546Z,0
2017-02-03T04:08:16.237Z,0
2017-02-03T04:09:29.970Z,0
2017-02-03T04:10:43.065Z,0
2017-02-03T04:11:56.732Z,0
2017-02-03T04:13:10.428Z,0
2017-02-03T04:14:24.099Z,0
2017-02-03T04:15:37.208Z,0
2017-02-03T04:16:50.892Z,0
2017-02-03T04:18:04.569Z,0
2017-02-03T04:19:17.051Z,0
2017-02-03T04:20:30.140Z,0
2017-02-03T04:21:43.830Z,0
2017-02-03T04:22:57.514Z,0
2017-02-03T04:24:11.171Z,0
2017-02-03T04:25:24.837Z,0
2017-02-03T04:26:38.552Z,0
2017-02-03T04:27:52.262Z,0
2017-02-03T04:29:05.336Z,0
2017-02-03T04:30:18.999Z,0
2017-02-03T04:31:32.698Z,0
2017-02-03T04:32:46.360Z,0
2017-02-03T04:34:00.077Z,0
2017-02-03T04:35:13.160Z,0
2017-02-03T04:36:25.665Z,0
2017-02-03T04:37:39.374Z,0
2017-02-03T04:38:53.049Z,0
2017-02-03T04:40:06.712Z,0
2017-02-03T04:41:20.382Z,0
2017-02-03T04:42:34.048Z,0
2017-02-03T04:43:47.732Z,0
2017-02-03T04:45:01.385Z,0
2017-02-03T04:46:15.075Z,0
2017-02-03T04:47:28.796Z,0
2017-02-03T04:48:42.514Z,0
2017-02-03T04:49:56.192Z,0
2017-02-03T04:51:09.252Z,0
2017-02-03T04:52:22.903Z,0
2017-02-03T04:53:36.639Z,0
2017-02-03T04:54:50.350Z,0
2017-02-03T04:56:04.035Z,0
2017-02-03T04:57:17.742Z,0
2017-02-03T04:58:31.413Z,0
2017-02-03T04:59:45.096Z,0
2017-02-03T05:00:59.324Z,0
2017-02-03T05:02:13.065Z,0
2017-02-03T05:03:27.424Z,0
2017-02-03T05:04:41.823Z,0
2017-02-03T05:05:56.242Z,0
2017-02-03T05:07:10.015Z,0
2017-02-03T05:08:24.431Z,0
2017-02-03T05:09:38.829Z,0
2017-02-03T05:10:53.222Z,0
2017-02-03T05:12:07.610Z,0
2017-02-03T05:13:22.045Z,0
2017-02-03T05:14:36.432Z,0
2017-02-03T05:15:50.808Z,0
2017-02-03T05:17:05.175Z,0
2017-02-03T05:18:18.898Z,0
2017-02-03T05:19:33.284Z,0
2017-02-03T05:20:47.635Z,0
2017-02-03T05:22:01.977Z,0
2017-02-03T05:23:16.382Z,0
2017-02-03T05:24:30.783Z,0
2017-02-03T05:25:45.129Z,0
2017-02-03T05:26:59.513Z,0
2017-02-03T05:28:13.232Z,0
2017-02-03T05:29:26.958Z,0
2017-02-03T05:30:40.654Z,0
2017-02-03T05:31:55.024Z,0
2017-02-03T05:33:09.412Z,0
2017-02-03T05:34:23.768Z,0
2017-02-03T05:35:38.143Z,0
2017-02-03T05:36:51.845Z,0
2017-02-03T05:38:06.224Z,0
2017-02-03T05:39:20.584Z,0
2017-02-03T05:40:34.945Z,0
2017-02-03T05:41:49.306Z,0
2017-02-03T05:43:03.711Z,0
2017-02-03T05:44:17.439Z,0
2017-02-03T05:45:31.838Z,0
2017-02-03T05:46:46.202Z,0
2017-02-03T05:48:00.594Z,0
2017-02-03T05:49:14.956Z,0
2017-02-03T05:50:28.697Z,0
2017-02-03T05:51:43.022Z,0
2017-02-03T05:52:57.376Z,0
2017-02-03T05:54:11.764Z,0
2017-02-03T05:55:26.129Z,0
2017-02-03T05:56:40.479Z,0
2017-02-03T05:57:54.845Z,0
2017-02-03T05:59:09.206Z,0
2017-02-03T06:00:22.952Z,0
2017-02-03T06:01:37.286Z,0
2017-02-03T06:02:51.658Z,0
2017-02-03T06:04:06.044Z,0
2017-02-03T06:05:20.419Z,0
2017-02-03T06:06:34.821Z,0
2017-02-03T06:07:49.167Z,0
2017-02-03T06:09:03.540Z,0
2017-02-03T06:10:17.904Z,0
2017-02-03T06:11:32.298Z,0
2017-02-03T06:12:46.661Z,0
2017-02-03T06:14:01.000Z,0
2017-02-03T06:15:15.378Z,0
2017-02-03T06:16:29.163Z,0
2017-02-03T06:17:42.879Z,0
2017-02-03T06:18:57.221Z,0
2017-02-03T06:20:10.939Z,0
2017-02-03T06:21:25.331Z,0
2017-02-03T06:22:39.706Z,0
2017-02-03T06:23:53.426Z,0
2017-02-03T06:25:07.790Z,0
2017-02-03T06:26:21.531Z,0
2017-02-03T06:27:35.908Z,0
2017-02-03T06:28:49.622Z,0
2017-02-03T06:30:03.994Z,0
2017-02-03T06:31:18.327Z,0
2017-02-03T06:32:32.654Z,0
2017-02-03T06:33:46.983Z,0
2017-02-03T06:35:01.420Z,0
2017-02-03T06:36:15.788Z,0
2017-02-03T06:37:30.148Z,0
2017-02-03T06:38:44.528Z,0
2017-02-03T06:39:58.902Z,0
2017-02-03T06:41:13.241Z,0
2017-02-03T06:42:27.604Z,0
2017-02-03T06:43:41.309Z,0
2017-02-03T06:44:55.672Z,0
2017-02-03T06:46:10.040Z,0
2017-02-03T06:47:24.403Z,0
2017-02-03T06:48:38.783Z,0
2017-02-03T06:49:53.135Z,0
2017-02-03T06:51:07.504Z,0
2017-02-03T06:52:21.829Z,0
2017-02-03T06:53:36.200Z,0
2017-02-03T06:54:50.590Z,0
2017-02-03T06:56:04.971Z,0
2017-02-03T06:57:19.369Z,0
2017-02-03T06:58:33.734Z,0
2017-02-03T06:59:48.523Z,0
2017-02-03T07:01:03.172Z,0
2017-02-03T07:02:16.891Z,0
2017-02-03T07:03:31.248Z,0
2017-02-03T07:04:44.985Z,0
2017-02-03T07:05:59.367Z,0
2017-02-03T07:07:13.761Z,0
2017-02-03T07:08:28.133Z,0
2017-02-03T07:09:42.560Z,0
2017-02-03T07:10:56.296Z,0
2017-02-03T07:12:10.023Z,0
2017-02-03T07:13:24.358Z,0
2017-02-03T07:14:38.738Z,0
2017-02-03T07:15:52.476Z,0
2017-02-03T07:17:06.864Z,0
2017-02-03T07:18:21.260Z,0
2017-02-03T07:19:35.671Z,0
2017-02-03T07:20:50.017Z,0
2017-02-03T07:22:04.371Z,0
2017-02-03T07:23:18.732Z,0
2017-02-03T07:24:33.101Z,0
2017-02-03T07:25:47.449Z,0
2017-02-03T07:27:01.799Z,0
2017-02-03T07:28:15.536Z,0
2017-02-03T07:29:29.897Z,0
2017-02-03T07:30:44.256Z,0
2017-02-03T07:31:58.591Z,0
2017-02-03T07:33:12.957Z,0
2017-02-03T07:34:27.347Z,0
2017-02-03T07:35:41.733Z,0
2017-02-03T07:36:56.085Z,0
2017-02-03T07:38:10.431Z,0
2017-02-03T07:39:24.765Z,0
2017-02-03T07:40:39.106Z,0
2017-02-03T07:41:52.838Z,0
2017-02-03T07:43:06.566Z,0
2017-02-03T07:44:20.920Z,0
2017-02-03T07:45:35.300Z,0
2017-02-03T07:46:49.628Z,0
2017-02-03T07:48:04.044Z,0
2017-02-03T07:49:18.417Z,0
2017-02-03T07:50:32.115Z,0
2017-02-03T07:51:46.493Z,0
2017-02-03T07:53:00.847Z,0
2017-02-03T07:54:15.242Z,0
2017-02-03T07:55:28.999Z,0
2017-02-03T07:56:42.731Z,0
2017-02-03T07:57:57.130Z,0
2017-02-03T07:59:10.845Z,0
2017-02-03T08:00:25.217Z,0
2017-02-03T08:01:39.549Z,0
2017-02-03T08:02:53.906Z,0
2017-02-03T08:04:07.699Z,0
2017-02-03T08:05:21.411Z,0
2017-02-03T08:06:35.799Z,0
2017-02-03T08:07:48.889Z,0
2017-02-03T08:09:03.200Z,0
2017-02-03T08:10:17.564Z,0
2017-02-03T08:11:31.911Z,0
2017-02-03T08:12:46.286Z,0
2017-02-03T08:14:00.663Z,0
2017-02-03T08:15:15.045Z,0
2017-02-03T08:16:28.751Z,0
2017-02-03T08:17:43.114Z,0
2017-02-03T08:18:57.459Z,0
2017-02-03T08:20:10.561Z,0
2017-02-03T08:21:24.933Z,0
2017-02-03T08:22:39.311Z,0
2017-02-03T08:23:53.671Z,0
2017-02-03T08:25:07.391Z,0
2017-02-03T08:26:21.771Z,4
2017-02-03T08:27:36.131Z,4
2017-02-03T08:28:50.520Z,4
2017-02-03T08:30:04.901Z,4
2017-02-03T08:31:18.603Z,8
2017-02-03T08:32:32.986Z,8
2017-02-03T08:33:47.396Z,12
2017-02-03T08:35:01.775Z,16
2017-02-03T08:36:16.128Z,24
2017-02-03T08:37:29.852Z,28
2017-02-03T08:38:44.221Z,40
2017-02-03T08:39:57.934Z,52
2017-02-03T08:41:12.315Z,64
2017-02-03T08:42:26.692Z,80
2017-02-03T08:43:41.048Z,100
2017-02-03T08:44:54.733Z,120
2017-02-03T08:46:09.121Z,144
2017-02-03T08:47:23.509Z,164
2017-02-03T08:48:37.860Z,188
2017-02-03T08:49:52.241Z,216
2017-02-03T08:51:06.595Z,256
2017-02-03T08:52:20.933Z,296
2017-02-03T08:53:35.308Z,340
2017-02-03T08:54:49.657Z,388
2017-02-03T08:56:03.388Z,432
2017-02-03T08:57:17.089Z,476
2017-02-03T08:58:31.475Z,520
2017-02-03T08:59:45.834Z,552
2017-02-03T09:00:59.575Z,572
2017-02-03T09:02:14.014Z,640
2017-02-03T09:03:28.429Z,708
2017-02-03T09:04:42.800Z,788
2017-02-03T09:05:57.214Z,892
2017-02-03T09:07:11.561Z,968
2017-02-03T09:08:25.955Z,1044
2017-02-03T09:09:40.301Z,1116
2017-02-03T09:10:54.041Z,1180
2017-02-03T09:12:07.116Z,1252
2017-02-03T09:13:21.476Z,1288
2017-02-03T09:14:35.834Z,1332
2017-02-03T09:15:49.558Z,1384
2017-02-03T09:17:03.312Z,1456
2017-02-03T09:18:17.684Z,1536
2017-02-03T09:19:32.034Z,1636
2017-02-03T09:20:45.805Z,1764
2017-02-03T09:21:58.878Z,1904
2017-02-03T09:23:13.230Z,2064
2017-02-03T09:24:27.601Z,2224
2017-02-03T09:25:41.919Z,2392
2017-02-03T09:26:56.267Z,2588
2017-02-03T09:28:10.630Z,2788
2017-02-03T09:29:24.997Z,2988
2017-02-03T09:30:39.398Z,3196
2017-02-03T09:31:53.749Z,3384
2017-02-03T09:33:08.125Z,3580
2017-02-03T09:34:21.874Z,3768
2017-02-03T09:35:36.274Z,4000
2017-02-03T09:36:50.650Z,4252
2017-02-03T09:38:05.013Z,4548
2017-02-03T09:39:19.357Z,4804
2017-02-03T09:40:33.750Z,4908
2017-02-03T09:41:48.129Z,5368
2017-02-03T09:43:02.492Z,5676
2017-02-03T09:44:16.841Z,6020
2017-02-03T09:45:31.229Z,6292
2017-02-03T09:46:45.579Z,6564
2017-02-03T09:48:00.308Z,6828
2017-02-03T09:49:15.223Z,7104
2017-02-03T09:50:28.979Z,7344
2017-02-03T09:51:43.335Z,7584
2017-02-03T09:52:57.056Z,7840
2017-02-03T09:54:10.768Z,8104
2017-02-03T09:55:25.174Z,8420
2017-02-03T09:56:39.529Z,8736
2017-02-03T09:57:53.877Z,8992
2017-02-03T09:59:07.612Z,9188
2017-02-03T10:00:21.962Z,9356
2017-02-03T10:01:36.351Z,9484
2017-02-03T10:02:50.727Z,9592
2017-02-03T10:04:04.499Z,9720
2017-02-03T10:05:18.881Z,9876
2017-02-03T10:06:33.257Z,10024
2017-02-03T10:07:47.667Z,10156
2017-02-03T10:09:01.475Z,10288
2017-02-03T10:10:15.236Z,10460
2017-02-03T10:11:29.618Z,10604
2017-02-03T10:12:43.980Z,10716
2017-02-03T10:13:58.413Z,10836
2017-02-03T10:15:12.779Z,10948
2017-02-03T10:16:27.126Z,11056
2017-02-03T10:17:41.552Z,11172
2017-02-03T10:18:55.277Z,11316
2017-02-03T10:20:09.681Z,11568
2017-02-03T10:21:24.042Z,11872
2017-02-03T10:22:38.428Z,12128
2017-02-03T10:23:52.854Z,12432
2017-02-03T10:25:05.917Z,12840
2017-02-03T10:26:20.313Z,13360
2017-02-03T10:27:34.670Z,13888
2017-02-03T10:28:49.148Z,14416
2017-02-03T10:30:02.866Z,14940
2017-02-03T10:31:16.593Z,15416
2017-02-03T10:32:30.923Z,15824
2017-02-03T10:33:45.289Z,16184
2017-02-03T10:34:59.687Z,16496
2017-02-03T10:36:14.054Z,16788
2017-02-03T10:37:28.420Z,17068
2017-02-03T10:38:43.372Z,17440
2017-02-03T10:39:57.761Z,17664
2017-02-03T10:41:12.135Z,17888
2017-02-03T10:42:26.502Z,18272
2017-02-03T10:43:40.869Z,18784
2017-02-03T10:44:55.228Z,19392
2017-02-03T10:46:09.604Z,20224
2017-02-03T10:47:24.002Z,21408
2017-02-03T10:48:38.381Z,21920
2017-02-03T10:49:52.799Z,22560
2017-02-03T10:51:07.171Z,22176
2017-02-03T10:52:21.515Z,21856
2017-02-03T10:53:35.914Z,21824
2017-02-03T10:54:49.675Z,22144
2017-02-03T10:56:03.393Z,22496
2017-02-03T10:57:16.474Z,22944
2017-02-03T10:58:31.390Z,23424
2017-02-03T10:59:45.626Z,24000
2017-02-03T11:00:59.319Z,24608
2017-02-03T11:02:12.410Z,25088
2017-02-03T11:03:25.588Z,25504
2017-02-03T11:04:39.313Z,25888
2017-02-03T11:05:52.038Z,26336
2017-02-03T11:07:05.742Z,26944
2017-02-03T11:08:19.437Z,27840
2017-02-03T11:09:31.938Z,28992
2017-02-03T11:10:45.683Z,30528
2017-02-03T11:11:59.363Z,32096
2017-02-03T11:13:13.067Z,33344
2017-02-03T11:14:26.796Z,34528
2017-02-03T11:15:40.487Z,35424
2017-02-03T11:16:54.165Z,36192
2017-02-03T11:18:07.863Z,36800
2017-02-03T11:26:59.758Z,33728
2017-02-03T11:28:51.172Z,33984
2017-02-03T11:30:04.931Z,34208
2017-02-03T11:31:18.605Z,34848
2017-02-03T11:32:32.270Z,34816
2017-02-03T11:33:45.918Z,35008
2017-02-03T11:34:59.586Z,35264
2017-02-03T11:36:13.259Z,35136
2017-02-03T11:37:26.992Z,34720
2017-02-03T11:38:40.670Z,34592
2017-02-03T11:39:54.329Z,34688
2017-02-03T11:41:08.031Z,35072
2017-02-03T11:42:21.135Z,35712
2017-02-03T11:43:34.832Z,36672
2017-02-03T11:44:47.919Z,37760
2017-02-03T11:46:01.593Z,38848
2017-02-03T11:47:15.290Z,40096
2017-02-03T11:48:28.988Z,42144
2017-02-03T11:49:42.677Z,43872
2017-02-03T11:50:56.407Z,44000
2017-02-03T11:52:08.900Z,45280
2017-02-03T11:53:22.965Z,47168
2017-02-03T11:54:36.806Z,48896
2017-02-03T11:55:50.455Z,51776
2017-02-03T11:57:04.103Z,53536
2017-02-03T11:58:17.776Z,56448
2017-02-03T11:59:31.458Z,59648
2017-02-03T12:00:45.144Z,59712
2017-02-03T12:01:58.282Z,56288
2017-02-03T12:03:11.404Z,54976
2017-02-03T12:04:25.069Z,75008
2017-02-03T12:05:38.759Z,69760
2017-02-03T12:06:52.524Z,65216
2017-02-03T12:08:05.613Z,57472
2017-02-03T12:09:19.319Z,55808
2017-02-03T12:10:35.361Z,55712
2017-02-03T12:11:49.046Z,56544
2017-02-03T12:13:02.172Z,57952
2017-02-03T12:14:15.897Z,52672
2017-02-03T12:15:28.975Z,50912
2017-02-03T12:16:42.626Z,42048
2017-02-03T12:17:56.353Z,39328
2017-02-03T12:19:10.254Z,37760
2017-02-03T12:20:23.369Z,36544
2017-02-03T12:21:36.699Z,35552
2017-02-03T12:22:50.386Z,35008
2017-02-03T12:24:04.046Z,34048
2017-02-03T12:25:17.755Z,32960
2017-02-03T12:26:31.438Z,32224
2017-02-03T12:27:45.148Z,31744
2017-02-03T12:28:58.859Z,31552
2017-02-03T12:30:12.538Z,31232
2017-02-03T12:31:26.217Z,31296
2017-02-03T12:32:39.348Z,31616
2017-02-03T12:33:53.476Z,32000
2017-02-03T12:35:07.436Z,32352
2017-02-03T12:36:20.737Z,32544
2017-02-03T12:37:34.431Z,32608
2017-02-03T12:38:48.183Z,32608
2017-02-03T12:40:01.317Z,32576
2017-02-03T12:41:13.786Z,32416
2017-02-03T12:42:27.466Z,32128
2017-02-03T12:43:41.221Z,31648
2017-02-03T12:44:54.926Z,30976
2017-02-03T12:46:08.628Z,30208
2017-02-03T12:47:21.724Z,29376
2017-02-03T12:48:35.433Z,28384
2017-02-03T12:49:49.160Z,27520
2017-02-03T12:51:02.837Z,26720
2017-02-03T12:52:16.504Z,26048
2017-02-03T12:53:30.189Z,25440
2017-02-03T12:54:44.600Z,24960
2017-02-03T12:55:58.666Z,24512
2017-02-03T12:57:11.910Z,24128
2017-02-03T12:58:25.547Z,23840
2017-02-03T12:59:38.633Z,23712
2017-02-03T13:00:51.748Z,23584
2017-02-03T13:02:05.422Z,23520
2017-02-03T13:03:19.138Z,23584
2017-02-03T13:04:32.254Z,23776
2017-02-03T13:05:45.917Z,24096
2017-02-03T13:06:59.616Z,24576
2017-02-03T13:08:12.091Z,25184
2017-02-03T13:09:25.751Z,25920
2017-02-03T13:10:38.875Z,26752
2017-02-03T13:11:51.970Z,27648
2017-02-03T13:13:05.672Z,28544
2017-02-03T13:14:18.780Z,29600
2017-02-03T13:15:30.660Z,30688
2017-02-03T13:16:43.136Z,31840
2017-02-03T13:17:56.820Z,33120
2017-02-03T13:19:09.338Z,34336
2017-02-03T13:20:23.029Z,35584
2017-02-03T13:21:36.724Z,36928
2017-02-03T13:22:49.797Z,38336
2017-02-03T13:24:03.529Z,39808
2017-02-03T13:25:16.033Z,41184
2017-02-03T13:26:29.752Z,42560
2017-02-03T13:27:42.806Z,43968
2017-02-03T13:28:55.876Z,45568
2017-02-03T13:30:11.009Z,47680
2017-02-03T13:31:24.704Z,50144
2017-02-03T13:32:38.357Z,52832
2017-02-03T13:33:52.070Z,55456
2017-02-03T13:35:04.579Z,57152
2017-02-03T13:36:17.695Z,59232
2017-02-03T13:37:31.373Z,61856
2017-02-03T13:38:44.470Z,65440
2017-02-03T13:39:56.991Z,75296
2017-02-03T13:41:10.622Z,74304
2017-02-03T13:42:23.719Z,70208
2017-02-03T13:43:36.822Z,65184
2017-02-03T13:44:50.504Z,63488
2017-02-03T13:46:04.204Z,62656
2017-02-03T13:47:17.292Z,62816
2017-02-03T13:48:30.980Z,61792
2017-02-03T13:49:44.689Z,65312
2017-02-03T13:50:57.179Z,63136
2017-02-03T13:52:10.257Z,62464
2017-02-03T13:53:23.961Z,59648
2017-02-03T13:54:37.706Z,58176
2017-02-03T13:55:50.853Z,57664
2017-02-03T13:57:04.554Z,57408
2017-02-03T13:58:17.637Z,57088
2017-02-03T13:59:31.316Z,56448
2017-02-03T14:00:43.218Z,56000
2017-02-03T14:01:56.303Z,55584
2017-02-03T14:03:09.403Z,55072
2017-02-03T14:04:23.099Z,54784
2017-02-03T14:05:36.192Z,54496
2017-02-03T14:06:49.272Z,54368
2017-02-03T14:08:02.348Z,54464
2017-02-03T14:09:15.435Z,55168
2017-02-03T14:10:29.127Z,56064
2017-02-03T14:11:42.874Z,56960
2017-02-03T14:12:56.581Z,57984
2017-02-03T14:14:09.685Z,58048
2017-02-03T14:15:23.382Z,60704
2017-02-03T14:16:37.069Z,64128
2017-02-03T14:17:50.191Z,64672
2017-02-03T14:19:03.262Z,64416
2017-02-03T14:20:17.005Z,62912
2017-02-03T14:21:29.503Z,63360
2017-02-03T14:22:44.309Z,61152
2017-02-03T14:23:58.188Z,59072
2017-02-03T14:25:11.878Z,60192
2017-02-03T14:26:25.532Z,60544
2017-02-03T14:27:39.259Z,59808
2017-02-03T14:28:52.981Z,58720
2017-02-03T14:30:06.109Z,56672
2017-02-03T14:31:19.813Z,61536
2017-02-03T14:32:32.875Z,57824
2017-02-03T14:33:46.577Z,53696
2017-02-03T14:35:00.311Z,54112
2017-02-03T14:36:13.401Z,52512
2017-02-03T14:37:27.082Z,48768
2017-02-03T14:38:40.170Z,48256
2017-02-03T14:39:52.678Z,47712
2017-02-03T14:41:06.360Z,47808
2017-02-03T14:42:20.040Z,47744
2017-02-03T14:43:33.749Z,46720
2017-02-03T14:44:47.441Z,45248
2017-02-03T14:46:00.530Z,45696
2017-02-03T14:47:13.605Z,46944
2017-02-03T14:48:27.284Z,47904
2017-02-03T14:49:40.391Z,48480
2017-02-03T14:50:54.123Z,49504
2017-02-03T14:52:06.610Z,51392
2017-02-03T14:53:20.349Z,53312
2017-02-03T14:54:34.043Z,55072
2017-02-03T14:55:47.765Z,56448
2017-02-03T14:57:01.674Z,56672
2017-02-03T14:58:14.775Z,59648
2017-02-03T14:59:28.482Z,62720
2017-02-03T15:00:43.186Z,62464
2017-02-03T15:01:55.843Z,61344
2017-02-03T15:03:09.550Z,60000
2017-02-03T15:04:23.213Z,60032
2017-02-03T15:05:38.046Z,60192
2017-02-03T15:06:52.175Z,63136
2017-02-03T15:08:05.891Z,63616
2017-02-03T15:09:19.584Z,62496
2017-02-03T15:10:33.277Z,62528
2017-02-03T15:11:46.983Z,64000
2017-02-03T15:13:00.693Z,62784
2017-02-03T15:14:13.207Z,59456
2017-02-03T15:15:26.880Z,60384
2017-02-03T15:16:40.586Z,57536
2017-02-03T15:17:54.298Z,57216
2017-02-03T15:19:08.004Z,54304
2017-02-03T15:20:21.114Z,50528
2017-02-03T15:21:34.799Z,44160
2017-02-03T15:22:48.463Z,45920
2017-02-03T15:24:02.188Z,52928
2017-02-03T15:25:15.304Z,55648
2017-02-03T15:26:28.403Z,59744
2017-02-03T15:27:42.088Z,75392
2017-02-03T15:28:55.750Z,70176
2017-02-03T15:30:09.469Z,47776
2017-02-03T15:31:22.564Z,65088
2017-02-03T15:32:36.243Z,57216
2017-02-03T15:33:49.948Z,70112
2017-02-03T15:35:03.663Z,87200
2017-02-03T15:36:16.734Z,75040
2017-02-03T15:37:29.808Z,59040
2017-02-03T15:38:43.492Z,68960
2017-02-03T15:39:57.202Z,92608
2017-02-03T15:41:10.301Z,61408
2017-02-03T15:42:23.992Z,94368
2017-02-03T15:43:37.705Z,89792
2017-02-03T15:44:51.367Z,54528
2017-02-03T15:46:05.169Z,79744
2017-02-03T15:47:18.272Z,80768
2017-02-03T15:48:31.998Z,73824
2017-02-03T15:49:45.134Z,79360
2017-02-03T15:50:58.849Z,88960
2017-02-03T15:52:12.540Z,82624
2017-02-03T15:53:26.445Z,63232
2017-02-03T15:54:40.145Z,76384
2017-02-03T15:55:53.852Z,85664
2017-02-03T15:57:07.550Z,55872
2017-02-03T15:58:21.230Z,47904
2017-02-03T15:59:34.939Z,51072
2017-02-03T16:00:50.337Z,60672
2017-02-03T16:02:04.050Z,107840
2017-02-03T16:03:17.779Z,126304
2017-02-03T16:04:31.490Z,123328
2017-02-03T16:05:45.192Z,134368
2017-02-03T16:06:58.896Z,131040
2017-02-03T16:08:12.049Z,139168
2017-02-03T16:09:25.772Z,58432
2017-02-03T16:10:39.469Z,139872
2017-02-03T16:11:53.137Z,56576
2017-02-03T16:13:06.835Z,140832
2017-02-03T16:14:20.548Z,143712
2017-02-03T16:15:34.224Z,145600
2017-02-03T16:16:47.968Z,151200
2017-02-03T16:18:01.673Z,153024
2017-02-03T16:19:15.398Z,103424
2017-02-03T16:20:28.505Z,102848
2017-02-03T16:21:42.196Z,38848
2017-02-03T16:22:55.864Z,124896
2017-02-03T16:24:09.547Z,148128
2017-02-03T16:25:22.024Z,89024
2017-02-03T16:26:35.893Z,150784
2017-02-03T16:27:49.581Z,146048
2017-02-03T16:29:03.285Z,146112
2017-02-03T16:30:16.429Z,152576
2017-02-03T16:31:30.123Z,148032
2017-02-03T16:32:44.226Z,45568
2017-02-03T16:33:58.589Z,74912
2017-02-03T16:35:12.254Z,128160
2017-02-03T16:36:25.930Z,84000
2017-02-03T16:37:39.042Z,107584
2017-02-03T16:38:52.745Z,136288
2017-02-03T16:40:06.474Z,48608
2017-02-03T16:41:19.540Z,129248
2017-02-03T16:42:32.838Z,50080
2017-02-03T16:43:46.546Z,49184
2017-02-03T16:45:00.274Z,81120
2017-02-03T16:46:13.964Z,41760
2017-02-03T16:47:27.087Z,91040
2017-02-03T16:48:42.158Z,139392
2017-02-03T16:49:55.837Z,114944
2017-02-03T16:51:09.558Z,48096
2017-02-03T16:52:23.301Z,79200
2017-02-03T16:53:36.408Z,81280
2017-02-03T16:54:50.072Z,99456
2017-02-03T16:56:04.347Z,55072
2017-02-03T16:57:18.341Z,66944
2017-02-03T16:58:32.010Z,129856
2017-02-03T16:59:45.107Z,144064
2017-02-03T17:00:58.776Z,77472
2017-02-03T17:02:12.472Z,151840
2017-02-03T17:03:26.150Z,67968
2017-02-03T17:04:39.836Z,43168
2017-02-03T17:05:53.509Z,37408
2017-02-03T17:07:07.196Z,28704
2017-02-03T17:08:20.888Z,24864